Stephenville, Texas
Current Conditions -  °F | °C
As of 12:35 AM on Friday 19 Dec 2014 (Local Time) from KSEP Reporting Station
Overcast Overcast  
Wind Chill: 42°   Ceiling: 1700
Heat Index: 46°   Visibility: 10mi
Dew Point: 42°   Wind: 8mph
Humidity: 86%   Direction: 40°NE
Pressure: 30.15"   Gusts: NA
Location:  32.22°N, 98.2°W
Report Text: KSEP 190635Z AUTO 04007KT 10SM SCT006 OVC017 08/06 A3015 RMK AO2 T00800058
Loading
Personal Weather Stations






























Interactive Weather Map New forecast layout! Learn more

10-Day Weather Forecast

Advertisements
Track Severe Weather on mobile